sensor_id;sensor_type;location;lat;lon;timestamp;pressure;altitude;pressure_sealevel;temperature;humidity
7335;BME280;3708;42.632;23.378;2023-05-01T00:00:51;94277.34;;;15.49;50.37
7335;BME280;3708;42.632;23.378;2023-05-01T00:03:19;94272.91;;;15.72;49.86
7335;BME280;3708;42.632;23.378;2023-05-01T00:05:46;94278.81;;;15.65;50.13
7335;BME280;3708;42.632;23.378;2023-05-01T00:08:13;94281.56;;;15.72;49.78
7335;BME280;3708;42.632;23.378;2023-05-01T00:10:40;94281.44;;;15.84;49.48
7335;BME280;3708;42.632;23.378;2023-05-01T00:13:07;94285.44;;;15.97;48.99
7335;BME280;3708;42.632;23.378;2023-05-01T00:15:34;94279.75;;;15.76;49.44
7335;BME280;3708;42.632;23.378;2023-05-01T00:18:01;94284.63;;;15.93;49.23
7335;BME280;3708;42.632;23.378;2023-05-01T00:20:29;94284.66;;;15.97;49.03
7335;BME280;3708;42.632;23.378;2023-05-01T00:22:56;94288.19;;;15.44;50.27
7335;BME280;3708;42.632;23.378;2023-05-01T00:25:23;94289.97;;;15.40;50.59
7335;BME280;3708;42.632;23.378;2023-05-01T00:27:50;94283.81;;;14.82;52.06
7335;BME280;3708;42.632;23.378;2023-05-01T00:30:17;94282.88;;;15.24;51.38
7335;BME280;3708;42.632;23.378;2023-05-01T00:32:43;94292.91;;;15.54;50.51
7335;BME280;3708;42.632;23.378;2023-05-01T00:35:10;94292.03;;;15.46;50.60
7335;BME280;3708;42.632;23.378;2023-05-01T00:37:39;94293.00;;;15.22;51.36
7335;BME280;3708;42.632;23.378;2023-05-01T00:40:07;94287.81;;;15.26;51.26
7335;BME280;3708;42.632;23.378;2023-05-01T00:42:34;94291.94;;;15.62;50.68
7335;BME280;3708;42.632;23.378;2023-05-01T00:45:02;94291.59;;;15.82;50.14
7335;BME280;3708;42.632;23.378;2023-05-01T00:47:29;94298.25;;;15.95;49.71
7335;BME280;3708;42.632;23.378;2023-05-01T00:49:56;94300.66;;;16.04;49.34
7335;BME280;3708;42.632;23.378;2023-05-01T00:52:23;94304.06;;;15.28;51.28
7335;BME280;3708;42.632;23.378;2023-05-01T00:54:51;94300.84;;;14.69;52.82
7335;BME280;3708;42.632;23.378;2023-05-01T00:57:19;94307.41;;;14.12;54.96
7335;BME280;3708;42.632;23.378;2023-05-01T00:59:46;94303.34;;;14.46;54.15
7335;BME280;3708;42.632;23.378;2023-05-01T01:02:13;94303.25;;;14.74;53.19
7335;BME280;3708;42.632;23.378;2023-05-01T01:04:41;94309.22;;;14.55;53.60
7335;BME280;3708;42.632;23.378;2023-05-01T01:07:14;94310.25;;;13.92;55.24
7335;BME280;3708;42.632;23.378;2023-05-01T01:09:58;94307.72;;;14.11;55.44
7335;BME280;3708;42.632;23.378;2023-05-01T01:12:33;94309.63;;;14.73;54.11
7335;BME280;3708;42.632;23.378;2023-05-01T01:15:10;94310.69;;;15.03;53.01
7335;BME280;3708;42.632;23.378;2023-05-01T01:17:47;94306.03;;;14.96;52.43
7335;BME280;3708;42.632;23.378;2023-05-01T01:20:26;94311.84;;;15.05;52.35
7335;BME280;3708;42.632;23.378;2023-05-01T01:23:02;94312.97;;;15.04;52.04
7335;BME280;3708;42.632;23.378;2023-05-01T01:25:49;94323.94;;;15.06;51.81
7335;BME280;3708;42.632;23.378;2023-05-01T01:28:38;94325.19;;;15.12;51.82
7335;BME280;3708;42.632;23.378;2023-05-01T01:31:16;94323.69;;;15.11;51.67
7335;BME280;3708;42.632;23.378;2023-05-01T01:33:57;94330.69;;;15.23;51.58
7335;BME280;3708;42.632;23.378;2023-05-01T01:36:48;94322.53;;;15.28;51.29
7335;BME280;3708;42.632;23.378;2023-05-01T01:39:27;94328.34;;;15.18;51.10
7335;BME280;3708;42.632;23.378;2023-05-01T01:41:57;94321.06;;;14.96;51.37
7335;BME280;3708;42.632;23.378;2023-05-01T01:44:32;94324.88;;;14.64;52.17
7335;BME280;3708;42.632;23.378;2023-05-01T01:47:01;94318.16;;;14.66;52.23
7335;BME280;3708;42.632;23.378;2023-05-01T01:49:33;94325.94;;;14.78;52.02
7335;BME280;3708;42.632;23.378;2023-05-01T01:52:01;94329.59;;;14.74;52.09
7335;BME280;3708;42.632;23.378;2023-05-01T01:54:32;94325.34;;;14.53;52.35
7335;BME280;3708;42.632;23.378;2023-05-01T01:57:01;94324.44;;;14.62;52.48
7335;BME280;3708;42.632;23.378;2023-05-01T01:59:30;94322.66;;;14.66;52.50
7335;BME280;3708;42.632;23.378;2023-05-01T02:01:59;94321.63;;;14.55;52.08
7335;BME280;3708;42.632;23.378;2023-05-01T02:04:28;94310.75;;;14.40;52.48
7335;BME280;3708;42.632;23.378;2023-05-01T02:06:57;94321.25;;;14.09;53.01
7335;BME280;3708;42.632;23.378;2023-05-01T02:09:25;94310.25;;;13.92;53.73
7335;BME280;3708;42.632;23.378;2023-05-01T02:11:54;94323.94;;;13.69;54.29
7335;BME280;3708;42.632;23.378;2023-05-01T02:14:24;94318.16;;;13.64;54.71
7335;BME280;3708;42.632;23.378;2023-05-01T02:16:51;94317.06;;;13.65;54.51
7335;BME280;3708;42.632;23.378;2023-05-01T02:19:19;94313.88;;;13.87;54.27
7335;BME280;3708;42.632;23.378;2023-05-01T02:21:47;94320.00;;;13.91;54.07
7335;BME280;3708;42.632;23.378;2023-05-01T02:24:17;94313.84;;;13.99;53.83
7335;BME280;3708;42.632;23.378;2023-05-01T02:26:51;94308.88;;;13.98;54.12
7335;BME280;3708;42.632;23.378;2023-05-01T02:29:19;94313.09;;;13.71;54.47
7335;BME280;3708;42.632;23.378;2023-05-01T02:31:46;94314.88;;;13.83;54.25
7335;BME280;3708;42.632;23.378;2023-05-01T02:34:13;94310.84;;;14.01;53.93
7335;BME280;3708;42.632;23.378;2023-05-01T02:36:40;94313.53;;;14.16;53.59
7335;BME280;3708;42.632;23.378;2023-05-01T02:39:07;94311.91;;;14.27;53.47
7335;BME280;3708;42.632;23.378;2023-05-01T02:41:36;94306.13;;;14.22;53.22
7335;BME280;3708;42.632;23.378;2023-05-01T02:44:06;94308.25;;;14.16;53.21
7335;BME280;3708;42.632;23.378;2023-05-01T02:46:35;94308.00;;;14.06;53.51
7335;BME280;3708;42.632;23.378;2023-05-01T02:49:04;94311.03;;;13.92;53.90
7335;BME280;3708;42.632;23.378;2023-05-01T02:51:33;94311.44;;;13.94;53.97
7335;BME280;3708;42.632;23.378;2023-05-01T02:54:01;94315.63;;;13.95;54.05
7335;BME280;3708;42.632;23.378;2023-05-01T02:56:28;94322.59;;;14.03;53.71
7335;BME280;3708;42.632;23.378;2023-05-01T02:58:58;94316.13;;;14.01;54.03
7335;BME280;3708;42.632;23.378;2023-05-01T03:01:24;94313.53;;;13.73;54.63
7335;BME280;3708;42.632;23.378;2023-05-01T03:03:52;94327.59;;;13.93;54.27
7335;BME280;3708;42.632;23.378;2023-05-01T03:06:18;94317.44;;;13.24;55.71
7335;BME280;3708;42.632;23.378;2023-05-01T03:08:45;94324.66;;;12.90;57.41
7335;BME280;3708;42.632;23.378;2023-05-01T03:11:13;94325.13;;;12.68;57.64
7335;BME280;3708;42.632;23.378;2023-05-01T03:13:40;94325.78;;;12.77;57.61
7335;BME280;3708;42.632;23.378;2023-05-01T03:16:08;94319.44;;;12.78;58.09
7335;BME280;3708;42.632;23.378;2023-05-01T03:18:34;94332.22;;;13.28;56.90
7335;BME280;3708;42.632;23.378;2023-05-01T03:21:01;94336.81;;;13.19;56.58
7335;BME280;3708;42.632;23.378;2023-05-01T03:23:28;94326.31;;;13.19;56.08
7335;BME280;3708;42.632;23.378;2023-05-01T03:25:55;94339.28;;;13.40;55.75
7335;BME280;3708;42.632;23.378;2023-05-01T03:28:22;94342.34;;;13.42;54.87
7335;BME280;3708;42.632;23.378;2023-05-01T03:30:49;94337.22;;;13.33;54.67
7335;BME280;3708;42.632;23.378;2023-05-01T03:33:18;94342.41;;;13.18;54.53
7335;BME280;3708;42.632;23.378;2023-05-01T03:35:44;94342.88;;;13.08;54.58
7335;BME280;3708;42.632;23.378;2023-05-01T03:38:11;94345.25;;;13.00;54.76
7335;BME280;3708;42.632;23.378;2023-05-01T03:40:38;94343.50;;;12.92;55.01
7335;BME280;3708;42.632;23.378;2023-05-01T03:43:05;94340.00;;;13.00;55.03
7335;BME280;3708;42.632;23.378;2023-05-01T03:45:32;94339.81;;;13.06;55.22
7335;BME280;3708;42.632;23.378;2023-05-01T03:47:58;94350.53;;;13.13;55.09
7335;BME280;3708;42.632;23.378;2023-05-01T03:50:27;94357.09;;;13.19;54.94
7335;BME280;3708;42.632;23.378;2023-05-01T03:52:53;94355.13;;;13.28;54.67
7335;BME280;3708;42.632;23.378;2023-05-01T03:55:20;94364.50;;;13.41;54.68
7335;BME280;3708;42.632;23.378;2023-05-01T03:57:47;94362.88;;;13.36;54.73
7335;BME280;3708;42.632;23.378;2023-05-01T04:00:14;94358.91;;;13.42;54.43
7335;BME280;3708;42.632;23.378;2023-05-01T04:02:41;94369.09;;;13.56;54.31
7335;BME280;3708;42.632;23.378;2023-05-01T04:05:08;94373.13;;;13.53;53.94
7335;BME280;3708;42.632;23.378;2023-05-01T04:07:36;94369.38;;;13.54;54.08
7335;BME280;3708;42.632;23.378;2023-05-01T04:10:03;94365.75;;;13.59;53.88
7335;BME280;3708;42.632;23.378;2023-05-01T04:12:31;94365.19;;;13.65;53.50
7335;BME280;3708;42.632;23.378;2023-05-01T04:14:58;94371.63;;;13.80;53.13
7335;BME280;3708;42.632;23.378;2023-05-01T04:17:25;94376.31;;;13.87;53.25
7335;BME280;3708;42.632;23.378;2023-05-01T04:19:52;94371.72;;;13.84;52.63
7335;BME280;3708;42.632;23.378;2023-05-01T04:22:20;94370.88;;;13.80;53.18
7335;BME280;3708;42.632;23.378;2023-05-01T04:24:49;94363.75;;;13.96;52.64
7335;BME280;3708;42.632;23.378;2023-05-01T04:27:15;94369.88;;;14.00;52.43
7335;BME280;3708;42.632;23.378;2023-05-01T04:29:44;94365.25;;;14.09;52.47
7335;BME280;3708;42.632;23.378;2023-05-01T04:32:10;94375.03;;;14.24;52.07
7335;BME280;3708;42.632;23.378;2023-05-01T04:34:38;94377.22;;;14.34;51.94
7335;BME280;3708;42.632;23.378;2023-05-01T04:37:04;94379.00;;;14.45;51.81
7335;BME280;3708;42.632;23.378;2023-05-01T04:39:33;94369.75;;;14.51;51.92
7335;BME280;3708;42.632;23.378;2023-05-01T04:42:02;94374.16;;;14.47;52.59
7335;BME280;3708;42.632;23.378;2023-05-01T04:44:29;94377.75;;;14.71;51.72
7335;BME280;3708;42.632;23.378;2023-05-01T04:46:55;94376.47;;;14.96;51.50
7335;BME280;3708;42.632;23.378;2023-05-01T04:49:22;94382.22;;;15.17;50.86
7335;BME280;3708;42.632;23.378;2023-05-01T04:51:49;94389.97;;;15.10;50.00
7335;BME280;3708;42.632;23.378;2023-05-01T04:54:16;94381.25;;;15.25;50.07
7335;BME280;3708;42.632;23.378;2023-05-01T04:56:43;94382.88;;;15.29;50.01
7335;BME280;3708;42.632;23.378;2023-05-01T04:59:11;94386.94;;;15.43;49.88
7335;BME280;3708;42.632;23.378;2023-05-01T05:01:38;94390.31;;;15.59;49.72
7335;BME280;3708;42.632;23.378;2023-05-01T05:04:04;94391.97;;;15.48;49.70
7335;BME280;3708;42.632;23.378;2023-05-01T05:06:32;94398.59;;;15.76;49.34
7335;BME280;3708;42.632;23.378;2023-05-01T05:08:58;94395.13;;;15.91;48.93
7335;BME280;3708;42.632;23.378;2023-05-01T05:11:25;94402.50;;;16.01;48.60
7335;BME280;3708;42.632;23.378;2023-05-01T05:13:52;94407.84;;;15.86;48.75
7335;BME280;3708;42.632;23.378;2023-05-01T05:16:20;94405.84;;;15.79;49.10
7335;BME280;3708;42.632;23.378;2023-05-01T05:18:47;94410.84;;;15.84;49.31
7335;BME280;3708;42.632;23.378;2023-05-01T05:21:13;94409.88;;;15.92;49.20
7335;BME280;3708;42.632;23.378;2023-05-01T05:23:40;94411.00;;;16.11;49.13
7335;BME280;3708;42.632;23.378;2023-05-01T05:26:07;94415.97;;;16.16;48.76
7335;BME280;3708;42.632;23.378;2023-05-01T05:28:34;94413.63;;;16.11;49.19
7335;BME280;3708;42.632;23.378;2023-05-01T05:31:01;94422.84;;;16.39;48.85
7335;BME280;3708;42.632;23.378;2023-05-01T05:33:29;94428.06;;;16.36;48.94
7335;BME280;3708;42.632;23.378;2023-05-01T05:35:57;94422.50;;;16.22;49.39
7335;BME280;3708;42.632;23.378;2023-05-01T05:38:24;94417.84;;;15.77;50.66
7335;BME280;3708;42.632;23.378;2023-05-01T05:40:51;94422.91;;;15.66;50.67
7335;BME280;3708;42.632;23.378;2023-05-01T05:43:18;94429.22;;;15.11;52.79
7335;BME280;3708;42.632;23.378;2023-05-01T05:45:45;94432.03;;;15.03;53.35
7335;BME280;3708;42.632;23.378;2023-05-01T05:48:12;94424.25;;;15.76;51.79
7335;BME280;3708;42.632;23.378;2023-05-01T05:50:40;94426.28;;;16.21;50.91
7335;BME280;3708;42.632;23.378;2023-05-01T05:53:07;94431.06;;;15.26;53.28
7335;BME280;3708;42.632;23.378;2023-05-01T05:55:34;94433.38;;;15.78;52.26
7335;BME280;3708;42.632;23.378;2023-05-01T05:58:01;94435.25;;;15.12;53.76
7335;BME280;3708;42.632;23.378;2023-05-01T06:00:27;94439.16;;;15.18;53.96
7335;BME280;3708;42.632;23.378;2023-05-01T06:02:54;94435.72;;;16.02;52.60
7335;BME280;3708;42.632;23.378;2023-05-01T06:05:21;94436.28;;;16.12;51.42
7335;BME280;3708;42.632;23.378;2023-05-01T06:07:49;94438.09;;;16.08;51.89
7335;BME280;3708;42.632;23.378;2023-05-01T06:10:16;94442.06;;;16.55;51.03
7335;BME280;3708;42.632;23.378;2023-05-01T06:12:43;94445.19;;;16.23;51.99
7335;BME280;3708;42.632;23.378;2023-05-01T06:15:10;94441.78;;;16.83;50.33
7335;BME280;3708;42.632;23.378;2023-05-01T06:17:41;94444.72;;;16.78;50.49
7335;BME280;3708;42.632;23.378;2023-05-01T06:20:09;94452.00;;;16.85;50.06
7335;BME280;3708;42.632;23.378;2023-05-01T06:22:36;94446.41;;;16.67;50.94
7335;BME280;3708;42.632;23.378;2023-05-01T06:25:05;94449.06;;;17.12;50.22
7335;BME280;3708;42.632;23.378;2023-05-01T06:27:32;94441.16;;;17.38;49.58
7335;BME280;3708;42.632;23.378;2023-05-01T06:29:58;94450.78;;;17.01;50.24
7335;BME280;3708;42.632;23.378;2023-05-01T06:32:25;94442.56;;;17.32;49.78
7335;BME280;3708;42.632;23.378;2023-05-01T06:34:52;94442.06;;;17.23;49.74
7335;BME280;3708;42.632;23.378;2023-05-01T06:37:19;94441.31;;;17.49;49.11
7335;BME280;3708;42.632;23.378;2023-05-01T06:39:46;94446.81;;;17.37;49.65
7335;BME280;3708;42.632;23.378;2023-05-01T06:42:15;94449.50;;;17.14;50.54
7335;BME280;3708;42.632;23.378;2023-05-01T06:44:41;94450.00;;;17.49;48.95
7335;BME280;3708;42.632;23.378;2023-05-01T06:47:08;94450.16;;;17.83;48.79
7335;BME280;3708;42.632;23.378;2023-05-01T06:49:35;94443.53;;;17.99;48.33
7335;BME280;3708;42.632;23.378;2023-05-01T06:52:02;94451.22;;;18.08;48.03
7335;BME280;3708;42.632;23.378;2023-05-01T06:54:29;94452.94;;;18.26;47.31
7335;BME280;3708;42.632;23.378;2023-05-01T06:56:56;94446.75;;;18.82;46.83
7335;BME280;3708;42.632;23.378;2023-05-01T06:59:24;94453.13;;;19.18;45.46
7335;BME280;3708;42.632;23.378;2023-05-01T07:01:51;94452.47;;;19.28;45.61
7335;BME280;3708;42.632;23.378;2023-05-01T07:04:18;94458.19;;;18.89;46.31
7335;BME280;3708;42.632;23.378;2023-05-01T07:06:44;94454.59;;;19.12;45.53
7335;BME280;3708;42.632;23.378;2023-05-01T07:09:11;94454.78;;;18.22;47.11
7335;BME280;3708;42.632;23.378;2023-05-01T07:11:38;94453.94;;;18.45;45.95
7335;BME280;3708;42.632;23.378;2023-05-01T07:14:06;94453.94;;;18.78;45.90
7335;BME280;3708;42.632;23.378;2023-05-01T07:16:35;94455.72;;;18.70;46.35
7335;BME280;3708;42.632;23.378;2023-05-01T07:19:01;94454.78;;;18.89;45.67
7335;BME280;3708;42.632;23.378;2023-05-01T07:21:28;94453.69;;;18.93;45.81
7335;BME280;3708;42.632;23.378;2023-05-01T07:23:55;94467.84;;;19.52;44.46
7335;BME280;3708;42.632;23.378;2023-05-01T07:26:23;94459.97;;;19.66;43.53
7335;BME280;3708;42.632;23.378;2023-05-01T07:28:51;94464.16;;;19.67;43.29
7335;BME280;3708;42.632;23.378;2023-05-01T07:31:17;94464.91;;;19.67;43.40
7335;BME280;3708;42.632;23.378;2023-05-01T07:33:46;94462.97;;;19.61;43.57
7335;BME280;3708;42.632;23.378;2023-05-01T07:36:13;94458.94;;;19.85;42.68
7335;BME280;3708;42.632;23.378;2023-05-01T07:38:40;94460.59;;;20.10;41.74
7335;BME280;3708;42.632;23.378;2023-05-01T07:41:07;94459.56;;;20.25;41.40
7335;BME280;3708;42.632;23.378;2023-05-01T07:43:34;94452.41;;;20.43;41.01
7335;BME280;3708;42.632;23.378;2023-05-01T07:46:01;94449.44;;;20.59;40.48
7335;BME280;3708;42.632;23.378;2023-05-01T07:48:28;94462.81;;;20.87;40.01
7335;BME280;3708;42.632;23.378;2023-05-01T07:51:00;94455.56;;;20.84;40.31
7335;BME280;3708;42.632;23.378;2023-05-01T07:53:27;94460.56;;;21.07;40.92
7335;BME280;3708;42.632;23.378;2023-05-01T07:56:03;94452.19;;;21.40;41.17
7335;BME280;3708;42.632;23.378;2023-05-01T07:58:31;94462.44;;;21.70;40.78
7335;BME280;3708;42.632;23.378;2023-05-01T08:00:58;94465.13;;;21.59;40.26
7335;BME280;3708;42.632;23.378;2023-05-01T08:03:26;94459.41;;;21.57;40.03
7335;BME280;3708;42.632;23.378;2023-05-01T08:05:53;94464.75;;;21.57;38.92
7335;BME280;3708;42.632;23.378;2023-05-01T08:08:21;94466.28;;;21.55;38.99
7335;BME280;3708;42.632;23.378;2023-05-01T08:10:49;94464.75;;;21.68;38.44
7335;BME280;3708;42.632;23.378;2023-05-01T08:13:16;94458.66;;;21.78;38.60
7335;BME280;3708;42.632;23.378;2023-05-01T08:15:44;94458.59;;;22.10;39.38
7335;BME280;3708;42.632;23.378;2023-05-01T08:18:11;94466.09;;;22.46;38.16
7335;BME280;3708;42.632;23.378;2023-05-01T08:20:44;94460.94;;;21.86;38.91
7335;BME280;3708;42.632;23.378;2023-05-01T08:23:10;94458.19;;;22.18;38.10
7335;BME280;3708;42.632;23.378;2023-05-01T08:25:39;94455.69;;;22.69;37.75
7335;BME280;3708;42.632;23.378;2023-05-01T08:28:05;94467.28;;;23.11;37.43
7335;BME280;3708;42.632;23.378;2023-05-01T08:30:32;94459.03;;;22.84;34.90
7335;BME280;3708;42.632;23.378;2023-05-01T08:32:59;94458.78;;;22.61;34.87
7335;BME280;3708;42.632;23.378;2023-05-01T08:35:26;94468.63;;;22.82;36.76
7335;BME280;3708;42.632;23.378;2023-05-01T08:37:53;94456.81;;;22.79;37.01
7335;BME280;3708;42.632;23.378;2023-05-01T08:40:21;94467.25;;;23.18;36.25
7335;BME280;3708;42.632;23.378;2023-05-01T08:42:50;94462.28;;;23.68;34.18
7335;BME280;3708;42.632;23.378;2023-05-01T08:45:18;94460.69;;;23.74;33.63
7335;BME280;3708;42.632;23.378;2023-05-01T08:47:46;94461.66;;;23.49;34.44
7335;BME280;3708;42.632;23.378;2023-05-01T08:50:15;94457.31;;;22.46;36.46
7335;BME280;3708;42.632;23.378;2023-05-01T08:52:43;94457.13;;;21.73;37.75
7335;BME280;3708;42.632;23.378;2023-05-01T08:55:11;94452.53;;;21.98;36.46
7335;BME280;3708;42.632;23.378;2023-05-01T08:57:43;94450.78;;;22.54;35.98
7335;BME280;3708;42.632;23.378;2023-05-01T09:00:16;94451.56;;;22.47;36.14
7335;BME280;3708;42.632;23.378;2023-05-01T09:02:45;94445.81;;;22.56;36.05
7335;BME280;3708;42.632;23.378;2023-05-01T09:05:12;94441.59;;;22.58;35.82
7335;BME280;3708;42.632;23.378;2023-05-01T09:07:42;94442.38;;;22.66;35.90
7335;BME280;3708;42.632;23.378;2023-05-01T09:10:10;94443.13;;;22.70;35.21
7335;BME280;3708;42.632;23.378;2023-05-01T09:12:38;94444.69;;;22.57;35.71
7335;BME280;3708;42.632;23.378;2023-05-01T09:15:07;94452.75;;;23.15;34.48
7335;BME280;3708;42.632;23.378;2023-05-01T09:20:04;94448.41;;;23.39;34.75
7335;BME280;3708;42.632;23.378;2023-05-01T09:22:32;94443.38;;;23.44;34.70
7335;BME280;3708;42.632;23.378;2023-05-01T09:25:01;94448.34;;;23.87;33.02
7335;BME280;3708;42.632;23.378;2023-05-01T09:27:32;94444.47;;;23.91;33.55
7335;BME280;3708;42.632;23.378;2023-05-01T09:30:00;94449.44;;;23.52;32.71
7335;BME280;3708;42.632;23.378;2023-05-01T09:32:27;94450.19;;;23.53;32.98
7335;BME280;3708;42.632;23.378;2023-05-01T09:35:08;94451.09;;;23.80;33.40
7335;BME280;3708;42.632;23.378;2023-05-01T09:37:36;94448.09;;;23.23;34.22
7335;BME280;3708;42.632;23.378;2023-05-01T09:40:07;94448.50;;;23.69;33.62
7335;BME280;3708;42.632;23.378;2023-05-01T09:42:35;94444.31;;;24.09;32.99
7335;BME280;3708;42.632;23.378;2023-05-01T09:45:05;94446.66;;;24.37;32.77
7335;BME280;3708;42.632;23.378;2023-05-01T09:47:32;94452.88;;;23.93;33.43
7335;BME280;3708;42.632;23.378;2023-05-01T09:50:01;94451.28;;;23.99;33.70
7335;BME280;3708;42.632;23.378;2023-05-01T09:52:29;94442.91;;;23.94;32.99
7335;BME280;3708;42.632;23.378;2023-05-01T09:55:11;94447.06;;;23.98;33.27
7335;BME280;3708;42.632;23.378;2023-05-01T09:57:38;94442.91;;;24.31;32.48
7335;BME280;3708;42.632;23.378;2023-05-01T10:00:08;94442.56;;;23.51;32.79
7335;BME280;3708;42.632;23.378;2023-05-01T10:02:35;94430.75;;;23.89;32.08
7335;BME280;3708;42.632;23.378;2023-05-01T10:05:04;94432.88;;;24.05;31.38
7335;BME280;3708;42.632;23.378;2023-05-01T10:07:32;94434.63;;;24.52;31.43
7335;BME280;3708;42.632;23.378;2023-05-01T10:10:14;94432.97;;;24.32;31.40
7335;BME280;3708;42.632;23.378;2023-05-01T10:12:41;94433.41;;;24.87;30.84
7335;BME280;3708;42.632;23.378;2023-05-01T10:15:09;94430.50;;;24.44;29.68
7335;BME280;3708;42.632;23.378;2023-05-01T10:17:37;94439.97;;;24.52;29.68
7335;BME280;3708;42.632;23.378;2023-05-01T10:20:07;94419.56;;;24.62;30.02
7335;BME280;3708;42.632;23.378;2023-05-01T10:22:34;94424.19;;;23.57;31.61
7335;BME280;3708;42.632;23.378;2023-05-01T10:25:02;94429.38;;;23.26;32.30
7335;BME280;3708;42.632;23.378;2023-05-01T10:27:31;94414.53;;;24.03;29.58
7335;BME280;3708;42.632;23.378;2023-05-01T10:30:01;94425.69;;;24.92;28.27
7335;BME280;3708;42.632;23.378;2023-05-01T10:32:30;94417.50;;;24.76;30.55
7335;BME280;3708;42.632;23.378;2023-05-01T10:35:00;94422.22;;;24.35;30.65
7335;BME280;3708;42.632;23.378;2023-05-01T10:37:36;94423.75;;;24.63;29.75
7335;BME280;3708;42.632;23.378;2023-05-01T10:43:16;94425.78;;;25.62;28.88
7335;BME280;3708;42.632;23.378;2023-05-01T10:45:43;94414.25;;;25.85;28.31
7335;BME280;3708;42.632;23.378;2023-05-01T10:48:10;94415.16;;;26.57;27.23
7335;BME280;3708;42.632;23.378;2023-05-01T10:51:08;94414.44;;;27.24;26.39
7335;BME280;3708;42.632;23.378;2023-05-01T10:53:39;94418.16;;;27.46;28.15
7335;BME280;3708;42.632;23.378;2023-05-01T10:56:39;94419.25;;;27.49;28.34
7335;BME280;3708;42.632;23.378;2023-05-01T10:59:07;94422.66;;;26.85;28.53
7335;BME280;3708;42.632;23.378;2023-05-01T11:01:34;94421.59;;;26.23;28.63
7335;BME280;3708;42.632;23.378;2023-05-01T11:04:03;94419.94;;;26.29;28.42
7335;BME280;3708;42.632;23.378;2023-05-01T11:06:33;94420.22;;;26.71;27.73
7335;BME280;3708;42.632;23.378;2023-05-01T11:09:02;94420.69;;;27.53;26.67
7335;BME280;3708;42.632;23.378;2023-05-01T11:11:48;94413.75;;;28.13;26.75
7335;BME280;3708;42.632;23.378;2023-05-01T11:14:15;94415.97;;;26.54;29.20
7335;BME280;3708;42.632;23.378;2023-05-01T11:16:44;94421.94;;;26.81;27.58
7335;BME280;3708;42.632;23.378;2023-05-01T11:19:44;94426.16;;;26.82;27.89
7335;BME280;3708;42.632;23.378;2023-05-01T11:22:15;94426.56;;;26.02;28.68
7335;BME280;3708;42.632;23.378;2023-05-01T11:24:43;94423.44;;;25.84;28.52
7335;BME280;3708;42.632;23.378;2023-05-01T11:27:13;94423.72;;;26.12;28.77
7335;BME280;3708;42.632;23.378;2023-05-01T11:29:43;94426.88;;;26.46;28.69
7335;BME280;3708;42.632;23.378;2023-05-01T11:32:15;94421.44;;;26.50;28.83
7335;BME280;3708;42.632;23.378;2023-05-01T11:34:44;94433.47;;;26.42;29.46
7335;BME280;3708;42.632;23.378;2023-05-01T11:37:11;94430.00;;;27.16;28.64
7335;BME280;3708;42.632;23.378;2023-05-01T11:39:50;94432.06;;;25.95;29.35
7335;BME280;3708;42.632;23.378;2023-05-01T11:42:19;94421.03;;;26.68;28.65
7335;BME280;3708;42.632;23.378;2023-05-01T11:45:05;94432.59;;;27.68;26.85
7335;BME280;3708;42.632;23.378;2023-05-01T11:47:32;94432.84;;;28.19;26.24
7335;BME280;3708;42.632;23.378;2023-05-01T11:49:59;94439.41;;;28.46;25.84
7335;BME280;3708;42.632;23.378;2023-05-01T11:52:27;94430.63;;;28.84;24.86
7335;BME280;3708;42.632;23.378;2023-05-01T11:54:56;94426.88;;;29.31;24.35
7335;BME280;3708;42.632;23.378;2023-05-01T11:57:22;94426.03;;;29.34;23.94
7335;BME280;3708;42.632;23.378;2023-05-01T11:59:49;94432.63;;;29.68;23.57
7335;BME280;3708;42.632;23.378;2023-05-01T12:02:18;94427.28;;;29.42;22.96
7335;BME280;3708;42.632;23.378;2023-05-01T12:04:45;94442.59;;;28.70;23.14
7335;BME280;3708;42.632;23.378;2023-05-01T12:07:19;94446.06;;;28.42;23.63
7335;BME280;3708;42.632;23.378;2023-05-01T12:09:47;94448.66;;;28.17;24.20
7335;BME280;3708;42.632;23.378;2023-05-01T12:12:16;94444.56;;;27.35;25.16
7335;BME280;3708;42.632;23.378;2023-05-01T12:14:43;94445.94;;;27.07;25.61
7335;BME280;3708;42.632;23.378;2023-05-01T12:17:10;94441.50;;;27.33;26.84
7335;BME280;3708;42.632;23.378;2023-05-01T12:19:45;94455.72;;;27.98;26.07
7335;BME280;3708;42.632;23.378;2023-05-01T12:22:13;94449.50;;;28.42;25.55
7335;BME280;3708;42.632;23.378;2023-05-01T12:24:47;94445.66;;;29.35;24.18
7335;BME280;3708;42.632;23.378;2023-05-01T12:27:16;94442.59;;;30.05;22.75
7335;BME280;3708;42.632;23.378;2023-05-01T12:29:44;94450.81;;;30.36;21.88
7335;BME280;3708;42.632;23.378;2023-05-01T12:32:12;94447.03;;;30.33;22.84
7335;BME280;3708;42.632;23.378;2023-05-01T12:34:40;94441.25;;;29.88;22.18
7335;BME280;3708;42.632;23.378;2023-05-01T12:37:07;94451.50;;;29.21;23.41
7335;BME280;3708;42.632;23.378;2023-05-01T12:39:37;94447.44;;;28.75;25.08
7335;BME280;3708;42.632;23.378;2023-05-01T12:42:13;94452.75;;;28.50;24.82
7335;BME280;3708;42.632;23.378;2023-05-01T12:44:43;94455.00;;;28.10;24.35
7335;BME280;3708;42.632;23.378;2023-05-01T12:47:11;94455.41;;;26.96;25.65
7335;BME280;3708;42.632;23.378;2023-05-01T12:49:38;94443.47;;;26.61;26.13
7335;BME280;3708;42.632;23.378;2023-05-01T12:52:06;94447.66;;;26.82;26.19
7335;BME280;3708;42.632;23.378;2023-05-01T12:54:35;94443.44;;;27.33;25.17
7335;BME280;3708;42.632;23.378;2023-05-01T12:57:07;94447.44;;;27.89;24.59
7335;BME280;3708;42.632;23.378;2023-05-01T12:59:35;94450.13;;;28.34;25.44
7335;BME280;3708;42.632;23.378;2023-05-01T13:02:04;94454.66;;;28.37;25.62
7335;BME280;3708;42.632;23.378;2023-05-01T13:04:32;94443.00;;;28.68;25.00
7335;BME280;3708;42.632;23.378;2023-05-01T13:06:59;94441.13;;;29.07;24.28
7335;BME280;3708;42.632;23.378;2023-05-01T13:09:28;94448.28;;;29.73;23.69
7335;BME280;3708;42.632;23.378;2023-05-01T13:11:59;94441.03;;;29.95;23.41
7335;BME280;3708;42.632;23.378;2023-05-01T13:14:35;94432.28;;;29.91;23.47
7335;BME280;3708;42.632;23.378;2023-05-01T13:17:04;94440.84;;;29.77;24.44
7335;BME280;3708;42.632;23.378;2023-05-01T13:19:31;94440.94;;;29.86;23.74
7335;BME280;3708;42.632;23.378;2023-05-01T13:21:58;94447.47;;;29.51;24.48
7335;BME280;3708;42.632;23.378;2023-05-01T13:24:34;94455.97;;;28.74;25.66